Time;durP1;ratioP1;P1;durP2;ratioP2;P2;SDS_P1;SDS_P2;PMS_P1;PMS_P2;Temp;Humidity;BMP_temperature;BMP_pressure;BME280_temperature;BME280_humidity;BME280_pressure;Samples;Min_cycle;Max_cycle;Signal;HPM_P1;HPM_P2
2020/12/26 00:02:23;;;;;;;1.77;0.55;;;;;;;12.97;52.69;101213.41;4923731;28;114318;-58
2020/12/26 00:04:49;;;;;;;2.50;0.60;;;;;;;12.95;53.32;101220.97;4046343;28;10000568;-58
2020/12/26 00:07:15;;;;;;;2.55;0.60;;;;;;;12.94;53.21;101217.47;3177630;28;10000427;-58
2020/12/26 00:09:41;;;;;;;2.28;0.63;;;;;;;12.93;52.97;101210.44;4573606;28;10000518;-58
2020/12/26 00:12:07;;;;;;;1.98;0.50;;;;;;;12.93;53.26;101212.28;4405387;28;10001044;-58
2020/12/26 00:14:34;;;;;;;1.80;0.60;;;;;;;12.94;52.91;101211.25;4918517;28;126646;-58
2020/12/26 00:17:02;;;;;;;1.73;0.60;;;;;;;12.95;53.29;101221.78;4920199;28;97969;-57
2020/12/26 00:19:28;;;;;;;1.95;0.47;;;;;;;12.99;52.87;101214.75;4919720;28;98394;-58
2020/12/26 00:21:54;;;;;;;1.80;0.50;;;;;;;13.01;52.77;101214.50;4931228;28;98218;-58
2020/12/26 00:24:20;;;;;;;2.20;0.47;;;;;;;13.04;52.59;101219.38;4059485;28;10000641;-58
2020/12/26 00:26:47;;;;;;;1.80;0.57;;;;;;;13.08;52.60;101215.06;4919146;28;98164;-58
2020/12/26 00:29:14;;;;;;;1.92;0.65;;;;;;;13.05;52.68;101210.19;4936247;28;97954;-58
2020/12/26 00:31:40;;;;;;;2.17;0.50;;;;;;;13.06;52.37;101213.72;4902719;28;97756;-58
2020/12/26 00:34:06;;;;;;;2.67;0.50;;;;;;;13.06;52.20;101219.13;4938204;28;114094;-58
2020/12/26 00:36:32;;;;;;;1.17;0.40;;;;;;;13.05;52.20;101226.44;4937039;28;129008;-58
2020/12/26 00:38:58;;;;;;;2.20;0.40;;;;;;;13.06;51.93;101221.84;4939243;28;126046;-58
2020/12/26 00:41:24;;;;;;;2.20;0.40;;;;;;;13.07;52.05;101215.34;4942088;28;120643;-58
2020/12/26 00:43:50;;;;;;;2.50;0.40;;;;;;;13.06;52.01;101213.72;4942973;28;127697;-58
2020/12/26 00:46:20;;;;;;;1.95;0.38;;;;;;;13.06;51.84;101221.84;4942913;28;117896;-58
2020/12/26 00:48:46;;;;;;;1.48;0.40;;;;;;;13.05;51.69;101218.31;4943108;28;117389;-58
2020/12/26 00:51:12;;;;;;;2.65;0.40;;;;;;;13.01;51.88;101207.22;4943400;28;120746;-58
2020/12/26 00:53:39;;;;;;;2.05;0.50;;;;;;;13.00;51.89;101202.03;4944511;28;103687;-58
2020/12/26 00:56:05;;;;;;;2.70;0.50;;;;;;;13.01;51.70;101209.91;4943081;28;112614;-58
2020/12/26 00:58:31;;;;;;;1.65;0.40;;;;;;;12.98;51.90;101210.44;4926823;28;128179;-58
2020/12/26 01:00:57;;;;;;;1.83;0.40;;;;;;;12.99;51.63;101212.06;4942221;28;123615;-58
2020/12/26 01:03:23;;;;;;;1.55;0.40;;;;;;;12.96;51.43;101212.56;4944766;28;121230;-58
2020/12/26 01:05:49;;;;;;;1.80;0.30;;;;;;;12.96;51.94;101207.16;4944583;28;128233;-58
2020/12/26 01:08:15;;;;;;;1.80;0.40;;;;;;;12.96;51.50;101206.34;4943551;28;128333;-58
2020/12/26 01:10:41;;;;;;;1.58;0.30;;;;;;;12.95;51.40;101218.28;4942160;28;115820;-58
2020/12/26 01:13:07;;;;;;;1.73;0.30;;;;;;;12.96;51.48;101217.19;4945346;28;110984;-58
2020/12/26 01:15:33;;;;;;;1.88;0.22;;;;;;;12.92;51.40;101219.59;4944452;28;127952;-58
2020/12/26 01:17:59;;;;;;;1.50;0.20;;;;;;;12.92;51.57;101213.38;4945461;28;97992;-58
2020/12/26 01:20:25;;;;;;;1.67;0.30;;;;;;;12.90;51.24;101216.38;4944130;28;123825;-58
2020/12/26 01:22:51;;;;;;;1.15;0.30;;;;;;;12.88;51.21;101217.69;4944451;28;126968;-58
2020/12/26 01:25:17;;;;;;;1.52;0.30;;;;;;;12.87;51.24;101221.47;4943878;28;127900;-58
2020/12/26 01:27:43;;;;;;;1.35;0.20;;;;;;;12.85;51.28;101216.34;4944548;28;103413;-57
2020/12/26 01:30:09;;;;;;;1.55;0.30;;;;;;;12.85;51.15;101218.22;4945150;28;113304;-57
2020/12/26 01:32:35;;;;;;;1.83;0.22;;;;;;;12.83;51.15;101221.19;4945520;28;98381;-58
2020/12/26 01:35:01;;;;;;;1.55;0.40;;;;;;;12.84;51.02;101224.72;4944654;28;98219;-58
2020/12/26 01:37:28;;;;;;;1.17;0.30;;;;;;;12.82;50.87;101224.19;4943892;28;118896;-58
2020/12/26 01:39:54;;;;;;;1.98;0.30;;;;;;;12.78;51.21;101227.41;4926889;28;97815;-57
2020/12/26 01:42:20;;;;;;;1.55;0.40;;;;;;;12.78;51.12;101229.28;4925032;28;128906;-58
2020/12/26 01:44:46;;;;;;;1.80;0.22;;;;;;;12.75;51.32;101233.34;4944569;28;98456;-58
2020/12/26 01:47:13;;;;;;;1.60;0.40;;;;;;;12.78;51.25;101242.81;4945041;28;97877;-58
2020/12/26 01:49:39;;;;;;;1.77;0.20;;;;;;;12.74;51.24;101229.00;4910382;28;99810;-57
2020/12/26 01:52:06;;;;;;;2.67;0.40;;;;;;;12.74;51.14;101223.59;4943711;28;128273;-58
2020/12/26 01:54:32;;;;;;;1.83;0.30;;;;;;;12.74;51.09;101220.09;4908973;28;120553;-57
2020/12/26 01:56:58;;;;;;;2.17;0.30;;;;;;;12.73;51.08;101211.16;4943517;28;127305;-58
2020/12/26 01:59:24;;;;;;;1.65;0.20;;;;;;;12.73;51.19;101216.56;4943577;28;110836;-57
2020/12/26 02:01:51;;;;;;;2.08;0.30;;;;;;;12.73;50.85;101213.88;4943818;28;112362;-57
2020/12/26 02:04:17;;;;;;;1.17;0.20;;;;;;;12.72;51.05;101220.31;4945095;28;99060;-58
2020/12/26 02:06:44;;;;;;;1.33;0.20;;;;;;;12.72;50.99;101216.81;4943765;28;124374;-58
2020/12/26 02:09:11;;;;;;;1.17;0.20;;;;;;;12.70;50.96;101211.69;4926679;28;97682;-58
2020/12/26 02:11:37;;;;;;;1.08;0.28;;;;;;;12.73;50.72;101226.53;4943903;28;98568;-57
2020/12/26 02:14:03;;;;;;;1.27;0.30;;;;;;;12.71;50.96;101226.00;4944047;28;99303;-57
2020/12/26 02:16:30;;;;;;;2.45;0.35;;;;;;;12.69;50.71;101220.88;4943483;28;127772;-58
2020/12/26 02:18:56;;;;;;;1.00;0.20;;;;;;;12.70;51.66;101217.09;4943375;28;120937;-58
2020/12/26 02:21:26;;;;;;;1.83;0.30;;;;;;;12.69;50.56;101210.06;4940859;28;128224;-58
2020/12/26 02:23:52;;;;;;;1.92;0.20;;;;;;;12.71;50.75;101224.13;4909348;28;98340;-58
2020/12/26 02:26:29;;;;;;;1.52;0.30;;;;;;;12.68;50.97;101223.81;4943074;28;128874;-58
2020/12/26 02:28:55;;;;;;;1.10;0.20;;;;;;;12.70;50.67;101225.19;4944478;28;97674;-58
2020/12/26 02:31:21;;;;;;;1.40;0.20;;;;;;;12.71;50.54;101221.41;4925686;28;98429;-58
2020/12/26 02:33:47;;;;;;;1.58;0.20;;;;;;;12.71;50.51;101224.13;4946802;28;115536;-58
2020/12/26 02:36:13;;;;;;;1.27;0.20;;;;;;;12.71;50.08;101223.31;4943264;28;126744;-58
2020/12/26 02:38:40;;;;;;;1.83;0.30;;;;;;;12.71;50.56;101231.41;4943098;28;102201;-58
2020/12/26 02:41:07;;;;;;;1.65;0.20;;;;;;;12.69;50.52;101231.69;4943910;28;98242;-58
2020/12/26 02:43:33;;;;;;;0.85;0.20;;;;;;;12.69;50.44;101250.63;4943720;28;98927;-57
2020/12/26 02:45:59;;;;;;;1.00;0.20;;;;;;;12.68;50.68;101240.88;4943759;28;98136;-58
2020/12/26 02:48:26;;;;;;;0.80;0.20;;;;;;;12.68;50.71;101238.16;4942434;28;123788;-57
2020/12/26 02:50:52;;;;;;;1.40;0.20;;;;;;;12.66;50.43;101242.22;4943818;28;98288;-58
2020/12/26 02:53:18;;;;;;;1.45;0.20;;;;;;;12.66;50.42;101245.75;4942424;28;101674;-57
2020/12/26 02:55:44;;;;;;;1.45;0.30;;;;;;;12.66;50.23;101247.63;4941989;28;117009;-58
2020/12/26 02:58:10;;;;;;;1.75;0.30;;;;;;;12.65;50.45;101245.97;4943006;28;122652;-58
2020/12/26 03:00:36;;;;;;;2.53;0.40;;;;;;;12.65;50.70;101243.28;4942137;28;126043;-58
2020/12/26 03:03:04;;;;;;;1.30;0.30;;;;;;;12.64;50.49;101242.47;4941576;28;128760;-58
2020/12/26 03:05:30;;;;;;;1.42;0.32;;;;;;;12.62;50.43;101251.94;4942621;28;127160;-58
2020/12/26 03:07:56;;;;;;;2.30;0.32;;;;;;;12.64;50.48;101247.06;4941193;28;122795;-58
2020/12/26 03:10:22;;;;;;;1.65;0.30;;;;;;;12.61;50.75;101256.50;4941294;28;129236;-58
2020/12/26 03:12:48;;;;;;;1.60;0.47;;;;;;;12.60;50.91;101254.06;4940412;28;128286;-58
2020/12/26 03:15:14;;;;;;;1.73;0.40;;;;;;;12.61;50.82;101256.50;4891846;28;127224;-57
2020/12/26 03:17:40;;;;;;;1.60;0.40;;;;;;;12.61;50.69;101261.91;4943359;28;97828;-58
2020/12/26 03:20:06;;;;;;;1.92;0.55;;;;;;;12.60;50.66;101254.06;4942261;28;125824;-58
2020/12/26 03:22:33;;;;;;;1.17;0.40;;;;;;;12.61;50.63;101255.69;4941595;28;128128;-58
2020/12/26 03:24:59;;;;;;;1.85;0.40;;;;;;;12.60;50.57;101248.66;4942878;28;125863;-58
2020/12/26 03:27:25;;;;;;;2.10;0.52;;;;;;;12.57;50.75;101260.00;4891338;28;121488;-57
2020/12/26 03:29:52;;;;;;;2.72;0.47;;;;;;;12.56;50.53;101264.59;4935545;28;98307;-57
2020/12/26 03:32:18;;;;;;;2.13;0.50;;;;;;;12.57;51.00;101255.41;4943641;28;100887;-57
2020/12/26 03:34:44;;;;;;;2.53;0.73;;;;;;;12.56;50.81;101264.59;4934061;28;119978;-58
2020/12/26 03:37:11;;;;;;;1.80;0.50;;;;;;;12.55;50.61;101264.88;4941820;28;122874;-58
2020/12/26 03:39:37;;;;;;;1.92;0.50;;;;;;;12.52;50.95;101266.19;4934687;28;97710;-57
2020/12/26 03:42:10;;;;;;;2.38;0.60;;;;;;;12.52;50.77;101266.19;4924233;28;99675;-57
2020/12/26 03:44:37;;;;;;;1.52;0.60;;;;;;;12.56;50.59;101266.50;4923890;28;98245;-58
2020/12/26 03:47:06;;;;;;;1.63;0.60;;;;;;;12.49;50.65;101259.41;4941306;28;97936;-57
2020/12/26 03:49:32;;;;;;;1.50;0.50;;;;;;;12.51;50.73;101265.38;4934543;28;98134;-57
2020/12/26 03:51:58;;;;;;;1.95;0.57;;;;;;;12.48;50.71;101268.59;4942877;28;98724;-58
2020/12/26 03:54:24;;;;;;;2.65;0.63;;;;;;;12.49;50.59;101272.13;4933380;28;127682;-58
2020/12/26 03:56:50;;;;;;;2.35;0.80;;;;;;;12.46;50.79;101264.56;4940388;28;121665;-58
2020/12/26 03:59:17;;;;;;;2.25;0.60;;;;;;;12.47;50.89;101266.97;4933068;28;127579;-58
2020/12/26 04:01:43;;;;;;;1.98;0.63;;;;;;;12.45;50.74;101273.72;4942972;28;98424;-57
2020/12/26 04:04:10;;;;;;;1.73;0.68;;;;;;;12.43;50.95;101270.47;4942439;28;97998;-58
2020/12/26 04:06:36;;;;;;;1.85;0.80;;;;;;;12.40;50.98;101269.09;4939980;28;105674;-57
2020/12/26 04:09:02;;;;;;;1.88;0.70;;;;;;;12.37;50.66;101272.31;4941377;28;128320;-57
2020/12/26 04:11:28;;;;;;;2.28;0.68;;;;;;;12.36;50.95;101275.28;4923467;28;98755;-57
2020/12/26 04:13:54;;;;;;;2.70;0.68;;;;;;;12.33;50.94;101273.91;4941150;28;128409;-57
2020/12/26 04:16:20;;;;;;;1.95;0.60;;;;;;;12.33;50.94;101276.59;4942345;28;122910;-57
2020/12/26 04:18:46;;;;;;;2.50;0.80;;;;;;;12.33;51.11;101282.00;4941923;28;128028;-58
2020/12/26 04:21:12;;;;;;;2.03;0.70;;;;;;;12.33;50.96;101283.91;4924084;28;98580;-58
2020/12/26 04:23:38;;;;;;;2.53;0.63;;;;;;;12.29;51.06;101291.72;4941306;28;128132;-58
2020/12/26 04:26:08;;;;;;;1.50;0.90;;;;;;;12.28;51.20;101292.81;4941146;28;122408;-57
2020/12/26 04:28:35;;;;;;;2.58;0.90;;;;;;;12.28;51.20;101296.31;4941998;28;99449;-58
2020/12/26 04:31:01;;;;;;;2.03;0.70;;;;;;;12.29;50.94;101310.63;4923562;28;114259;-58
2020/12/26 04:33:27;;;;;;;1.30;0.73;;;;;;;12.29;51.06;101311.44;4941472;28;127049;-58
2020/12/26 04:35:53;;;;;;;2.60;1.10;;;;;;;12.29;50.84;101308.75;4941251;28;122515;-58
2020/12/26 04:38:19;;;;;;;2.38;0.70;;;;;;;12.31;50.80;101311.22;4934218;28;127111;-58
2020/12/26 04:40:46;;;;;;;1.80;0.70;;;;;;;12.27;50.85;101318.22;4923112;28;115065;-57
2020/12/26 04:43:12;;;;;;;2.42;0.73;;;;;;;12.26;50.44;101317.41;4941299;28;111855;-57
2020/12/26 04:45:38;;;;;;;2.60;0.93;;;;;;;12.27;50.81;101321.72;4905845;28;121684;-57
2020/12/26 04:48:05;;;;;;;3.03;1.00;;;;;;;12.26;50.52;101320.09;4922702;28;126738;-57
2020/12/26 04:50:35;;;;;;;2.35;0.70;;;;;;;12.25;50.55;101326.56;4939104;28;100286;-58
2020/12/26 04:53:04;;;;;;;2.35;0.98;;;;;;;12.26;50.47;101320.09;4940466;28;127237;-58
2020/12/26 04:55:34;;;;;;;1.83;0.77;;;;;;;12.24;50.76;101322.22;4942304;28;98062;-57
2020/12/26 04:58:10;;;;;;;1.90;0.60;;;;;;;12.20;50.49;101323.81;4942117;28;98401;-57
2020/12/26 05:00:37;;;;;;;2.90;0.82;;;;;;;12.24;50.45;101319.53;4941306;28;98120;-58
2020/12/26 05:03:14;;;;;;;2.63;0.73;;;;;;;12.21;50.70;101325.44;4941055;28;115358;-57
2020/12/26 05:05:42;;;;;;;2.15;0.75;;;;;;;12.22;50.49;101328.94;4941612;28;97742;-57
2020/12/26 05:08:10;;;;;;;2.63;0.60;;;;;;;12.20;50.70;101321.13;4940948;28;119822;-57
2020/12/26 05:10:36;;;;;;;1.98;0.57;;;;;;;12.20;50.34;101318.41;4941537;28;98452;-57
2020/12/26 05:13:04;;;;;;;2.80;0.73;;;;;;;12.23;50.45;101327.91;4941105;28;117950;-58
2020/12/26 05:15:30;;;;;;;2.92;0.80;;;;;;;12.19;50.43;101313.28;4941853;28;98979;-58
2020/12/26 05:17:56;;;;;;;2.03;0.80;;;;;;;12.19;50.63;101322.19;4918023;28;127885;-58
2020/12/26 05:20:23;;;;;;;2.20;0.70;;;;;;;12.20;50.65;101313.00;4937574;28;98319;-58
2020/12/26 05:23:08;;;;;;;2.67;0.70;;;;;;;12.20;50.21;101309.50;4938303;28;98147;-57
2020/12/26 05:25:37;;;;;;;1.95;0.73;;;;;;;12.18;50.59;101311.63;4938737;28;97745;-57
2020/12/26 05:28:17;;;;;;;2.25;0.50;;;;;;;12.14;50.32;101308.63;4940681;28;121008;-57
2020/12/26 05:30:45;;;;;;;2.38;0.57;;;;;;;12.16;50.39;101309.19;4943862;28;114846;-57
2020/12/26 05:33:12;;;;;;;2.15;0.70;;;;;;;12.16;50.65;101320.00;4938967;28;97656;-58
2020/12/26 05:35:49;;;;;;;1.58;0.50;;;;;;;12.15;50.64;101310.28;4942312;28;104115;-58
2020/12/26 05:38:23;;;;;;;2.35;0.60;;;;;;;12.13;50.11;101304.28;4937816;28;98321;-57
2020/12/26 05:40:59;;;;;;;1.23;0.40;;;;;;;12.17;50.39;101307.28;4944289;28;98821;-58
2020/12/26 05:43:33;;;;;;;1.98;0.45;;;;;;;12.13;50.24;101300.78;4944194;28;98437;-58
2020/12/26 05:45:59;;;;;;;1.95;0.60;;;;;;;12.15;50.39;101298.66;4944549;28;97850;-57
2020/12/26 05:48:27;;;;;;;2.60;0.52;;;;;;;12.15;50.17;101304.06;4943913;28;128670;-57
2020/12/26 05:50:58;;;;;;;1.50;0.50;;;;;;;12.13;50.21;101315.09;4937177;28;98448;-57
2020/12/26 05:53:25;;;;;;;1.85;0.50;;;;;;;12.11;50.12;101306.44;4942758;28;120356;-58
2020/12/26 05:55:51;;;;;;;1.38;0.47;;;;;;;12.12;50.05;101309.97;4945024;28;97854;-58
2020/12/26 05:58:22;;;;;;;2.08;0.70;;;;;;;12.10;50.45;101312.09;4944525;28;99583;-57
2020/12/26 06:00:48;;;;;;;1.88;0.50;;;;;;;12.11;50.29;101301.03;4943759;28;108114;-58
2020/12/26 06:03:33;;;;;;;1.50;0.50;;;;;;;12.07;50.11;101304.53;4943899;28;119997;-57
2020/12/26 06:06:04;;;;;;;1.20;0.50;;;;;;;12.10;50.36;101309.41;4944609;28;97760;-58
2020/12/26 06:08:30;;;;;;;1.80;0.68;;;;;;;12.08;50.38;101309.66;4917975;28;98205;-58
2020/12/26 06:10:58;;;;;;;3.10;0.55;;;;;;;12.09;50.42;101315.88;4941831;28;99152;-57
2020/12/26 06:13:25;;;;;;;2.47;0.70;;;;;;;12.07;50.26;101318.84;4943781;28;103737;-57
2020/12/26 06:15:56;;;;;;;1.60;0.52;;;;;;;12.08;49.96;101316.97;4948488;28;116840;-58
2020/12/26 06:18:23;;;;;;;1.83;0.60;;;;;;;12.07;50.07;101326.16;4943898;28;98123;-57
2020/12/26 06:20:51;;;;;;;2.08;0.50;;;;;;;12.07;50.27;101323.44;4943112;28;121666;-57
2020/12/26 06:23:19;;;;;;;2.05;0.60;;;;;;;12.07;50.60;101328.84;4944997;28;98114;-57
2020/12/26 06:25:45;;;;;;;2.15;0.70;;;;;;;12.07;50.08;101326.97;4943994;28;97914;-58
2020/12/26 06:28:31;;;;;;;2.15;0.80;;;;;;;12.03;50.48;101329.34;4943342;28;98264;-58
2020/12/26 06:31:09;;;;;;;2.47;0.63;;;;;;;12.02;50.38;101330.44;4943130;28;99251;-57
2020/12/26 06:33:52;;;;;;;1.90;0.60;;;;;;;12.02;50.46;101321.47;4944110;28;99716;-58
2020/12/26 06:36:19;;;;;;;2.65;0.77;;;;;;;12.03;50.31;101328.53;4924903;28;103829;-58
2020/12/26 06:38:45;;;;;;;2.00;0.50;;;;;;;12.02;50.11;101329.59;4942066;28;99455;-58
2020/12/26 06:41:15;;;;;;;1.88;0.52;;;;;;;12.00;50.42;101329.03;4942893;28;120913;-58
2020/12/26 06:43:50;;;;;;;3.10;0.68;;;;;;;11.99;50.14;101325.53;4943933;28;98642;-58
2020/12/26 06:46:16;;;;;;;1.85;0.73;;;;;;;12.01;50.13;101327.97;4943481;28;97764;-57
2020/12/26 06:48:45;;;;;;;1.73;0.60;;;;;;;11.96;50.07;101315.22;4944037;28;98265;-58
2020/12/26 06:51:31;;;;;;;2.50;0.60;;;;;;;11.96;50.24;101314.41;4943872;28;98588;-57
2020/12/26 06:54:04;;;;;;;2.25;0.85;;;;;;;11.96;50.23;101309.00;4943201;28;98403;-59
2020/12/26 06:56:33;;;;;;;1.33;0.57;;;;;;;11.96;50.22;101317.94;4943053;28;97834;-58
2020/12/26 06:59:09;;;;;;;2.83;0.60;;;;;;;11.95;50.35;101312.78;4943491;28;98525;-57
2020/12/26 07:01:46;;;;;;;2.83;0.70;;;;;;;11.91;50.56;101315.19;4942702;28;117524;-57
2020/12/26 07:04:15;;;;;;;1.83;0.70;;;;;;;11.91;50.12;101317.09;4908090;28;97712;-57
2020/12/26 07:06:46;;;;;;;1.92;0.60;;;;;;;11.87;50.31;101314.06;4943557;28;97935;-58
2020/12/26 07:09:13;;;;;;;1.70;0.75;;;;;;;11.87;50.13;101319.47;4943423;28;98411;-57
2020/12/26 07:11:47;;;;;;;2.50;0.70;;;;;;;11.83;50.50;101312.06;4942401;28;99826;-57
2020/12/26 07:14:52;;;;;;;2.20;1.08;;;;;;;11.80;50.58;101310.72;4943256;28;98438;-57
2020/12/26 07:17:18;;;;;;;3.53;1.00;;;;;;;11.80;50.40;101318.81;4934976;28;97969;-58
2020/12/26 07:19:47;;;;;;;3.05;1.33;;;;;;;11.79;50.22;101317.19;4942525;28;99048;-57
2020/12/26 07:22:23;;;;;;;3.17;0.90;;;;;;;11.78;50.65;101316.34;4922946;28;126721;-58
2020/12/26 07:24:54;;;;;;;2.72;0.70;;;;;;;11.78;50.30;101310.16;4942118;28;98036;-58
2020/12/26 07:27:30;;;;;;;2.40;0.90;;;;;;;11.82;50.25;101307.75;4938631;28;114562;-57
2020/12/26 07:30:15;;;;;;;2.55;0.95;;;;;;;11.79;50.56;101312.59;4942911;28;97845;-58
2020/12/26 07:32:48;;;;;;;2.78;0.95;;;;;;;11.82;50.34;101316.66;4942314;28;98638;-57
2020/12/26 07:35:21;;;;;;;2.00;0.77;;;;;;;11.86;50.68;101309.72;4938862;28;98751;-58
2020/12/26 07:37:55;;;;;;;2.85;1.02;;;;;;;11.86;50.59;101307.00;4923022;28;97997;-57
2020/12/26 07:40:29;;;;;;;2.92;1.30;;;;;;;11.90;50.42;101316.25;4921219;28;98460;-57
2020/12/26 07:42:56;;;;;;;4.68;2.00;;;;;;;11.93;50.34;101325.72;4923614;28;98741;-58
2020/12/26 07:45:27;;;;;;;5.85;2.60;;;;;;;11.96;50.20;101326.03;4931914;28;98401;-57
2020/12/26 07:47:55;;;;;;;5.63;3.20;;;;;;;12.03;50.23;101333.94;4941845;28;115150;-57
2020/12/26 07:50:24;;;;;;;4.50;2.90;;;;;;;12.11;50.46;101338.06;4941743;28;98410;-57
2020/12/26 07:52:58;;;;;;;5.90;3.40;;;;;;;12.18;50.30;101338.66;4924111;28;99498;-57
2020/12/26 07:55:26;;;;;;;4.95;3.20;;;;;;;12.32;50.19;101345.28;4960248;28;97847;-57
2020/12/26 07:58:15;;;;;;;5.75;3.55;;;;;;;12.46;50.05;101332.97;4959365;28;98181;-57
2020/12/26 08:00:43;;;;;;;5.07;3.45;;;;;;;12.55;49.75;101340.59;4944535;28;98823;-57
2020/12/26 08:03:13;;;;;;;5.50;3.28;;;;;;;12.62;49.68;101335.78;4939289;28;104524;-58
2020/12/26 08:05:41;;;;;;;4.38;2.70;;;;;;;12.76;49.54;101336.94;4940140;28;98387;-57
2020/12/26 08:08:14;;;;;;;5.35;3.20;;;;;;;12.96;49.27;101333.53;4939548;28;97727;-58
2020/12/26 08:10:40;;;;;;;4.47;3.05;;;;;;;13.15;48.72;101334.72;4939980;28;98471;-57
2020/12/26 08:13:06;;;;;;;4.45;2.90;;;;;;;13.38;48.77;101338.94;4920225;28;127676;-58
2020/12/26 08:15:32;;;;;;;4.93;2.88;;;;;;;13.67;48.42;101341.19;4920617;28;127510;-58
2020/12/26 08:18:02;;;;;;;4.50;2.75;;;;;;;13.97;47.92;101338.53;4921342;28;114104;-58
2020/12/26 08:20:30;;;;;;;4.40;2.70;;;;;;;14.25;47.65;101334.50;4921605;28;99133;-58
2020/12/26 08:22:56;;;;;;;4.20;2.83;;;;;;;14.24;47.84;101324.75;4939750;28;99104;-57
2020/12/26 08:25:26;;;;;;;6.10;2.92;;;;;;;14.41;47.96;101331.78;4920577;28;127246;-58
2020/12/26 08:27:53;;;;;;;3.03;2.22;;;;;;;14.77;47.62;101329.06;4939688;28;98269;-58
2020/12/26 08:30:30;;;;;;;4.53;2.70;;;;;;;14.78;47.75;101328.00;4939547;28;99534;-57
2020/12/26 08:33:09;;;;;;;4.30;2.05;;;;;;;15.17;46.96;101331.69;4921528;28;110123;-58
2020/12/26 08:35:55;;;;;;;2.92;1.80;;;;;;;15.52;47.14;101329.06;4925041;28;98062;-58
2020/12/26 08:38:38;;;;;;;4.53;2.25;;;;;;;15.83;46.44;101327.84;4938763;28;97955;-58
2020/12/26 08:41:04;;;;;;;;;;;;;;;16.22;46.49;101316.13;4939103;28;99097;-58
2020/12/26 08:43:30;;;;;;;3.33;2.08;;;;;;;16.02;47.77;101332.63;4936815;28;128507;-58
2020/12/26 08:45:56;;;;;;;3.05;1.90;;;;;;;16.13;47.48;101317.84;4938730;28;128386;-58
2020/12/26 08:48:26;;;;;;;2.95;2.03;;;;;;;16.31;47.79;101321.78;4938976;28;123474;-58
2020/12/26 08:51:00;;;;;;;3.22;2.10;;;;;;;16.55;47.83;101321.88;4938918;28;98416;-58
2020/12/26 08:53:26;;;;;;;3.25;1.80;;;;;;;16.75;47.67;101318.16;4939120;28;98002;-57
2020/12/26 08:55:53;;;;;;;2.47;1.55;;;;;;;17.07;47.75;101321.06;4958488;28;125895;-58
2020/12/26 08:58:32;;;;;;;2.55;1.45;;;;;;;17.42;47.39;101314.34;4951574;28;97955;-58
2020/12/26 09:01:03;;;;;;;2.75;1.60;;;;;;;17.59;46.87;101321.22;4917490;28;105611;-58
2020/12/26 09:03:33;;;;;;;3.47;1.60;;;;;;;17.72;47.20;101331.38;4935186;28;100462;-58
2020/12/26 09:06:01;;;;;;;3.15;1.30;;;;;;;17.96;47.13;101327.81;4962660;28;97760;-58
2020/12/26 09:08:32;;;;;;;2.05;1.45;;;;;;;17.88;47.66;101326.53;4953775;28;97863;-58
2020/12/26 09:11:00;;;;;;;2.75;1.55;;;;;;;17.98;47.38;101328.31;4943556;28;98818;-58
2020/12/26 09:13:31;;;;;;;3.65;1.50;;;;;;;18.00;48.05;101326.94;4960432;28;98398;-57
2020/12/26 09:16:09;;;;;;;2.83;1.35;;;;;;;18.17;47.58;101331.03;4962049;28;98123;-58
2020/12/26 09:18:46;;;;;;;3.20;1.30;;;;;;;18.30;47.75;101331.06;4954660;28;97715;-58
2020/12/26 09:21:24;;;;;;;2.17;1.30;;;;;;;18.51;47.46;101325.25;4962909;28;97978;-58
2020/12/26 09:23:51;;;;;;;3.00;1.20;;;;;;;18.46;47.88;101331.63;4941809;28;99417;-58
2020/12/26 09:26:19;;;;;;;2.15;1.05;;;;;;;18.39;48.12;101332.03;4942461;28;98252;-58
2020/12/26 09:28:55;;;;;;;2.38;1.30;;;;;;;18.49;48.19;101341.16;4941903;28;98047;-58
2020/12/26 09:31:26;;;;;;;2.40;1.27;;;;;;;18.48;48.14;101340.34;4946483;28;98574;-58
2020/12/26 09:33:57;;;;;;;2.55;1.20;;;;;;;18.10;49.30;101343.13;4926516;28;101292;-57
2020/12/26 09:36:25;;;;;;;2.17;1.20;;;;;;;17.97;49.72;101340.34;4953167;28;117667;-58
2020/12/26 09:38:51;;;;;;;2.47;1.27;;;;;;;17.76;50.13;101351.53;4961908;28;97691;-58
2020/12/26 09:41:26;;;;;;;2.80;1.50;;;;;;;17.57;50.16;101345.25;4962010;28;99221;-58
2020/12/26 09:43:53;;;;;;;2.42;1.48;;;;;;;17.60;50.37;101345.44;4941319;28;100766;-58
2020/12/26 09:46:20;;;;;;;2.10;1.13;;;;;;;17.60;50.24;101345.44;4923951;28;98023;-57
2020/12/26 09:48:46;;;;;;;1.83;1.10;;;;;;;17.38;51.06;101339.75;4942232;28;97669;-58
2020/12/26 09:51:22;;;;;;;1.95;1.40;;;;;;;17.19;50.91;101339.72;4955087;28;116146;-58
2020/12/26 09:53:48;;;;;;;1.90;1.08;;;;;;;17.04;50.91;101340.69;4946264;28;98252;-58
2020/12/26 09:56:14;;;;;;;2.53;1.30;;;;;;;16.84;51.31;101336.28;4909103;28;113773;-58
2020/12/26 09:58:42;;;;;;;2.80;1.27;;;;;;;16.70;51.33;101327.13;4942825;28;97898;-59
2020/12/26 10:01:12;;;;;;;2.55;1.38;;;;;;;16.61;51.69;101324.22;4944309;28;98373;-58
2020/12/26 10:03:38;;;;;;;2.65;1.35;;;;;;;16.52;51.59;101325.16;4934351;28;118239;-58
2020/12/26 10:06:08;;;;;;;3.15;1.50;;;;;;;16.41;51.88;101329.88;4906781;28;97931;-58
2020/12/26 10:08:34;;;;;;;3.20;1.30;;;;;;;16.31;51.51;101329.94;4904416;28;97970;-58
2020/12/26 10:11:00;;;;;;;2.60;1.30;;;;;;;16.25;52.09;101336.53;4922043;28;98471;-58
2020/12/26 10:13:26;;;;;;;2.90;1.42;;;;;;;16.15;51.96;101334.69;4912794;28;128131;-58
2020/12/26 10:15:52;;;;;;;2.45;1.00;;;;;;;16.14;52.09;101331.16;4920281;28;126927;-58
2020/12/26 10:18:18;;;;;;;2.20;1.00;;;;;;;16.15;52.00;101337.41;4915372;28;97973;-58
2020/12/26 10:20:44;;;;;;;3.28;1.05;;;;;;;16.15;52.23;101321.94;4920750;28;119635;-58
2020/12/26 10:23:10;;;;;;;2.20;1.48;;;;;;;16.07;51.98;101321.69;4914637;28;129047;-58
2020/12/26 10:25:37;;;;;;;2.58;1.30;;;;;;;15.88;52.36;101321.59;4901851;28;97976;-58
2020/12/26 10:28:04;;;;;;;2.47;1.20;;;;;;;15.81;52.94;101323.78;4903392;28;118450;-58
2020/12/26 10:30:30;;;;;;;2.22;1.02;;;;;;;15.65;52.82;101315.72;4920179;28;127809;-58
2020/12/26 10:32:56;;;;;;;2.25;1.45;;;;;;;15.56;53.26;101316.56;4929359;28;114807;-57
2020/12/26 10:35:22;;;;;;;2.95;1.40;;;;;;;15.47;53.36;101313.63;4940996;28;98076;-58
2020/12/26 10:37:48;;;;;;;2.72;1.45;;;;;;;15.36;53.80;101318.28;4933185;28;97957;-58
2020/12/26 10:40:14;;;;;;;2.33;1.40;;;;;;;15.26;53.56;101310.19;4940867;28;99190;-58
2020/12/26 10:42:40;;;;;;;3.13;1.50;;;;;;;15.23;53.90;101313.47;4940062;28;127318;-57
2020/12/26 10:45:06;;;;;;;2.58;1.50;;;;;;;15.19;54.23;101315.09;4905710;28;126708;-57
2020/12/26 10:47:32;;;;;;;2.35;1.02;;;;;;;15.14;54.14;101318.66;4939808;28;122516;-57
2020/12/26 10:49:58;;;;;;;2.42;1.30;;;;;;;15.10;53.92;101306.72;4939220;28;99076;-58
2020/12/26 10:52:24;;;;;;;2.33;1.33;;;;;;;15.07;54.12;101301.03;4940320;28;99369;-58
2020/12/26 10:54:51;;;;;;;2.92;1.40;;;;;;;15.04;54.30;101296.97;4945156;28;113298;-58
2020/12/26 10:57:17;;;;;;;2.58;1.27;;;;;;;14.99;54.15;101288.84;4941455;28;97918;-58
2020/12/26 10:59:43;;;;;;;3.10;1.38;;;;;;;15.00;54.42;101298.59;4939766;28;128030;-57
2020/12/26 11:02:09;;;;;;;2.72;1.30;;;;;;;15.01;54.37;101294.78;4939588;28;99155;-58
2020/12/26 11:04:35;;;;;;;3.28;1.08;;;;;;;15.03;54.35;101292.63;4958974;28;122664;-57
2020/12/26 11:07:01;;;;;;;2.97;1.27;;;;;;;15.04;54.15;101290.72;4940992;28;123015;-58
2020/12/26 11:09:27;;;;;;;2.25;1.05;;;;;;;15.09;54.00;101285.25;4933428;28;112814;-58
2020/12/26 11:11:53;;;;;;;1.70;0.90;;;;;;;15.17;54.08;101284.72;4941549;28;124743;-58
2020/12/26 11:14:20;;;;;;;2.55;1.00;;;;;;;15.23;53.67;101291.72;4958202;28;111228;-57
2020/12/26 11:16:50;;;;;;;1.98;1.00;;;;;;;15.26;53.73;101284.94;4960487;28;114422;-58
2020/12/26 11:19:16;;;;;;;1.63;0.82;;;;;;;15.29;53.69;101287.06;4940825;28;120376;-57
2020/12/26 11:21:42;;;;;;;2.00;0.93;;;;;;;15.29;53.32;101287.06;4958937;28;115577;-58
2020/12/26 11:24:09;;;;;;;3.22;0.90;;;;;;;15.30;53.86;101280.56;4959044;28;109467;-58
2020/12/26 11:26:35;;;;;;;2.20;0.90;;;;;;;15.34;53.66;101276.22;4952644;28;97997;-59
2020/12/26 11:29:01;;;;;;;2.83;1.08;;;;;;;15.31;53.61;101282.19;4937683;28;128593;-58